Time;durP1;ratioP1;P1;durP2;ratioP2;P2;SDS_P1;SDS_P2;PMS_P1;PMS_P2;Temp;Humidity;BMP_temperature;BMP_pressure;BME280_temperature;BME280_humidity;BME280_pressure;Samples;Min_cycle;Max_cycle;Signal;HPM_P1;HPM_P2
2022/04/15 00:01:17;;;;;;;2.70;1.48;;;13.50;59.40;;;;;;4926486;29;20066;-77
2022/04/15 00:03:43;;;;;;;2.80;1.23;;;13.50;59.40;;;;;;4925849;29;20035;-77
2022/04/15 00:06:10;;;;;;;1.85;1.38;;;13.40;59.30;;;;;;4927275;29;20649;-77
2022/04/15 00:08:37;;;;;;;1.38;1.23;;;13.40;59.40;;;;;;4927422;29;20349;-77
2022/04/15 00:11:03;;;;;;;1.50;1.15;;;13.40;59.40;;;;;;4928557;29;20039;-77
2022/04/15 00:13:31;;;;;;;3.38;1.80;;;13.40;59.50;;;;;;4928163;29;20118;-76
2022/04/15 00:15:58;;;;;;;4.40;2.63;;;13.30;59.40;;;;;;4940261;28;20039;-77
2022/04/15 00:18:25;;;;;;;1.90;1.50;;;13.30;59.40;;;;;;4925791;29;20042;-77
2022/04/15 00:20:54;;;;;;;1.88;1.77;;;13.30;59.50;;;;;;4928530;29;20031;-77
2022/04/15 00:23:22;;;;;;;2.42;1.48;;;13.30;59.50;;;;;;4911248;29;20035;-77
2022/04/15 00:25:49;;;;;;;1.85;1.50;;;13.20;59.40;;;;;;4926902;29;20031;-77
2022/04/15 00:28:15;;;;;;;2.85;1.70;;;13.20;59.50;;;;;;4927830;29;20032;-78
2022/04/15 00:30:41;;;;;;;2.88;1.60;;;13.20;59.50;;;;;;4928078;29;20047;-78
2022/04/15 00:33:07;;;;;;;2.00;1.40;;;13.10;59.40;;;;;;4926162;29;20032;-77
2022/04/15 00:35:33;;;;;;;2.83;1.73;;;13.10;59.50;;;;;;4927898;29;20514;-76
2022/04/15 00:37:59;;;;;;;1.52;1.42;;;13.10;59.60;;;;;;4918809;29;20099;-77
2022/04/15 00:40:25;;;;;;;2.17;1.40;;;13.10;59.60;;;;;;4927837;29;20063;-76
2022/04/15 00:42:51;;;;;;;4.00;1.90;;;13.00;59.50;;;;;;4941117;28;20417;-77
2022/04/15 00:45:17;;;;;;;1.65;1.55;;;13.00;59.60;;;;;;4925699;29;20444;-76
2022/04/15 00:47:59;;;;;;;2.47;2.28;;;12.90;59.50;;;;;;4926944;29;20039;-76
2022/04/15 00:50:27;;;;;;;1.73;1.63;;;12.90;59.60;;;;;;4928885;29;20239;-77
2022/04/15 00:52:55;;;;;;;2.70;1.75;;;12.90;59.60;;;;;;4941812;29;20031;-77
2022/04/15 00:55:23;;;;;;;4.03;1.83;;;12.80;59.40;;;;;;4945136;28;20138;-75
2022/04/15 00:57:52;;;;;;;1.80;1.60;;;12.80;59.50;;;;;;4957036;29;20028;-76
2022/04/15 01:00:19;;;;;;;2.13;1.58;;;12.80;59.60;;;;;;4938709;29;20040;-76
2022/04/15 01:02:46;;;;;;;1.92;1.50;;;12.80;59.60;;;;;;4929036;29;20178;-77
2022/04/15 01:05:13;;;;;;;2.17;1.50;;;12.70;59.50;;;;;;4932509;29;20031;-78
2022/04/15 01:07:42;;;;;;;3.88;1.95;;;12.70;59.60;;;;;;4929534;29;20098;-78
2022/04/15 01:10:12;;;;;;;2.30;1.25;;;12.70;59.70;;;;;;4928945;29;20119;-78
2022/04/15 01:12:44;;;;;;;5.15;2.25;;;12.70;60.30;;;;;;4923589;29;20038;-77
2022/04/15 01:15:15;;;;;;;1.80;1.50;;;12.60;59.60;;;;;;4933075;29;20040;-77
2022/04/15 01:17:42;;;;;;;1.73;1.60;;;12.60;60.10;;;;;;4916551;29;20032;-78
2022/04/15 01:20:10;;;;;;;1.85;1.55;;;12.60;59.90;;;;;;4933359;29;20037;-78
2022/04/15 01:22:41;;;;;;;2.60;1.70;;;12.50;59.50;;;;;;4937657;29;20054;-77
2022/04/15 01:25:10;;;;;;;5.40;1.60;;;12.60;59.70;;;;;;4934949;28;20388;-77
2022/04/15 01:27:41;;;;;;;1.60;1.50;;;12.50;59.60;;;;;;4933567;29;20043;-77
2022/04/15 01:30:12;;;;;;;2.15;1.40;;;12.50;59.70;;;;;;4929750;29;20376;-77
2022/04/15 01:32:38;;;;;;;2.80;1.60;;;12.50;59.70;;;;;;4930118;29;20028;-77
2022/04/15 01:35:08;;;;;;;2.55;1.80;;;12.40;59.50;;;;;;4932151;29;20046;-77
2022/04/15 01:37:36;;;;;;;1.45;1.33;;;12.40;59.60;;;;;;4932516;29;20091;-76
2022/04/15 01:40:03;;;;;;;2.53;1.63;;;12.40;59.70;;;;;;4938821;29;20471;-76
2022/04/15 01:42:29;;;;;;;2.35;1.48;;;12.30;59.50;;;;;;4929579;29;20133;-77
2022/04/15 01:44:55;;;;;;;3.60;1.90;;;12.30;59.60;;;;;;4930920;29;20495;-77
2022/04/15 01:47:21;;;;;;;2.33;1.60;;;12.30;59.70;;;;;;4930072;29;20038;-76
2022/04/15 01:49:47;;;;;;;5.18;1.58;;;12.20;59.50;;;;;;4933838;29;20056;-78
2022/04/15 01:52:13;;;;;;;2.08;1.77;;;12.30;59.80;;;;;;4926440;29;20034;-77
2022/04/15 01:54:39;;;;;;;2.63;1.42;;;12.20;59.60;;;;;;4928733;29;20108;-77
2022/04/15 01:57:05;;;;;;;1.92;1.48;;;12.20;59.70;;;;;;4910254;29;20029;-77
2022/04/15 01:59:30;;;;;;;1.73;1.52;;;12.10;59.60;;;;;;4932542;29;20044;-77
2022/04/15 02:01:56;;;;;;;2.72;1.73;;;12.10;59.60;;;;;;4932705;29;20043;-77
2022/04/15 02:04:23;;;;;;;2.05;1.50;;;12.10;60.20;;;;;;4932199;29;20043;-77
2022/04/15 02:06:49;;;;;;;2.15;1.50;;;12.10;59.70;;;;;;4932199;29;20038;-78
2022/04/15 02:09:15;;;;;;;3.08;1.90;;;12.10;59.80;;;;;;4930451;29;20032;-77
2022/04/15 02:11:41;;;;;;;2.10;1.23;;;12.10;59.80;;;;;;4933106;28;20042;-77
2022/04/15 02:14:10;;;;;;;3.22;1.55;;;12.00;59.70;;;;;;4933862;29;20084;-75
2022/04/15 02:16:40;;;;;;;4.25;1.92;;;12.00;59.70;;;;;;4942985;29;20024;-78
2022/04/15 02:19:06;;;;;;;2.92;1.35;;;12.00;59.70;;;;;;4951078;29;20040;-78
2022/04/15 02:21:32;;;;;;;2.33;1.70;;;12.00;59.80;;;;;;4947159;29;20044;-78
2022/04/15 02:23:59;;;;;;;2.40;1.50;;;11.90;59.60;;;;;;4952428;29;20051;-78
2022/04/15 02:26:25;;;;;;;3.00;1.58;;;12.00;59.80;;;;;;4934864;29;20027;-77
2022/04/15 02:28:51;;;;;;;3.28;1.85;;;11.90;59.70;;;;;;4952168;29;20088;-79
2022/04/15 02:31:17;;;;;;;2.22;1.45;;;11.90;59.70;;;;;;4951381;29;20038;-77
2022/04/15 02:33:44;;;;;;;3.50;1.77;;;11.90;59.80;;;;;;4953335;29;20032;-77
2022/04/15 02:36:10;;;;;;;1.73;1.60;;;11.80;59.70;;;;;;4954077;29;20046;-78
2022/04/15 02:38:36;;;;;;;3.25;1.60;;;11.80;59.70;;;;;;4932641;29;20043;-77
2022/04/15 02:41:04;;;;;;;2.60;1.88;;;11.80;59.80;;;;;;4930786;29;20035;-77
2022/04/15 02:43:36;;;;;;;2.75;1.80;;;11.80;59.80;;;;;;4933810;29;20055;-77
2022/04/15 02:46:03;;;;;;;3.67;2.30;;;11.80;59.90;;;;;;4931506;29;20062;-77
2022/04/15 02:48:30;;;;;;;1.85;1.42;;;11.80;59.90;;;;;;4933184;29;20028;-77
2022/04/15 02:50:56;;;;;;;1.83;1.40;;;11.70;60.00;;;;;;4934714;29;20912;-77
2022/04/15 02:53:23;;;;;;;2.25;1.40;;;11.70;59.80;;;;;;4924072;29;20031;-77
2022/04/15 02:55:49;;;;;;;3.35;1.65;;;11.70;59.90;;;;;;4928896;29;20578;-77
2022/04/15 02:58:15;;;;;;;2.50;2.30;;;11.70;59.90;;;;;;4932735;29;20608;-77
2022/04/15 03:00:41;;;;;;;3.17;2.53;;;11.70;60.00;;;;;;4929084;29;20054;-77
2022/04/15 03:03:07;;;;;;;1.98;1.35;;;11.60;59.80;;;;;;4932869;29;20127;-78
2022/04/15 03:05:33;;;;;;;3.00;1.50;;;11.60;59.90;;;;;;4934323;29;20384;-77
2022/04/15 03:07:59;;;;;;;2.65;1.73;;;11.60;59.90;;;;;;4931817;29;20035;-77
2022/04/15 03:10:25;;;;;;;2.13;1.73;;;11.50;59.80;;;;;;4929344;29;20035;-77
2022/04/15 03:12:51;;;;;;;4.97;1.77;;;11.60;60.00;;;;;;4931836;29;20138;-76
2022/04/15 03:15:17;;;;;;;2.55;1.70;;;11.50;59.90;;;;;;4931712;29;20510;-77
2022/04/15 03:17:43;;;;;;;3.60;2.15;;;11.50;59.90;;;;;;4930952;29;20035;-77
2022/04/15 03:20:10;;;;;;;2.10;1.80;;;11.50;59.90;;;;;;4931105;29;20035;-77
2022/04/15 03:22:38;;;;;;;3.13;2.00;;;11.50;60.00;;;;;;4935663;29;20043;-77
2022/04/15 03:25:09;;;;;;;3.42;1.75;;;11.50;60.00;;;;;;4933815;28;20094;-76
2022/04/15 03:27:34;;;;;;;2.00;1.60;;;11.40;59.90;;;;;;4930306;29;20027;-76
2022/04/15 03:30:00;;;;;;;3.88;1.70;;;11.40;59.90;;;;;;4934620;29;20038;-76
2022/04/15 03:32:27;;;;;;;2.90;1.98;;;11.40;60.00;;;;;;4930266;29;20107;-77
2022/04/15 03:34:53;;;;;;;1.83;1.60;;;11.40;60.00;;;;;;4930752;29;20063;-77
2022/04/15 03:37:19;;;;;;;3.90;2.25;;;11.40;60.10;;;;;;4919216;29;20028;-77
2022/04/15 03:39:45;;;;;;;3.17;2.33;;;11.30;60.00;;;;;;4920051;29;20058;-77
2022/04/15 03:42:11;;;;;;;2.20;1.60;;;11.30;60.00;;;;;;4931115;29;20383;-77
2022/04/15 03:44:37;;;;;;;3.20;1.98;;;11.40;60.20;;;;;;4929923;29;20399;-77
2022/04/15 03:47:04;;;;;;;2.65;1.85;;;11.30;60.10;;;;;;4929265;29;20027;-77
2022/04/15 03:49:30;;;;;;;5.30;2.50;;;11.30;60.10;;;;;;4930450;29;20491;-77
2022/04/15 03:51:56;;;;;;;3.38;2.30;;;11.30;60.10;;;;;;4931435;29;20102;-77
2022/04/15 03:54:22;;;;;;;4.13;2.28;;;11.30;60.20;;;;;;4930786;29;20525;-78
2022/04/15 03:56:48;;;;;;;4.38;2.22;;;11.30;60.20;;;;;;4926226;29;20029;-78
2022/04/15 03:59:14;;;;;;;2.85;2.00;;;11.20;60.10;;;;;;4929388;29;20448;-78
2022/04/15 04:01:40;;;;;;;2.63;2.03;;;11.20;60.10;;;;;;4929161;29;20526;-77
2022/04/15 04:04:06;;;;;;;6.18;2.50;;;11.20;60.20;;;;;;4930553;29;20156;-77
2022/04/15 04:06:32;;;;;;;4.28;2.40;;;11.20;60.20;;;;;;4931305;29;20036;-76
2022/04/15 04:08:58;;;;;;;2.53;2.20;;;11.20;60.20;;;;;;4929712;29;20027;-76
2022/04/15 04:11:24;;;;;;;4.25;2.50;;;11.20;60.20;;;;;;4931114;29;20046;-77
2022/04/15 04:13:50;;;;;;;5.43;2.53;;;11.20;60.30;;;;;;4945289;29;20148;-76
2022/04/15 04:16:18;;;;;;;2.92;2.15;;;11.10;60.20;;;;;;4927999;29;20127;-76
2022/04/15 04:18:45;;;;;;;3.70;2.55;;;11.10;60.20;;;;;;4926749;29;20031;-76
2022/04/15 04:21:12;;;;;;;3.40;2.90;;;11.10;60.20;;;;;;4938890;29;20071;-76
2022/04/15 04:23:39;;;;;;;2.83;2.58;;;11.10;60.30;;;;;;4930074;29;20027;-76
2022/04/15 04:26:05;;;;;;;4.38;2.67;;;11.10;60.30;;;;;;4926151;29;20039;-76
2022/04/15 04:28:32;;;;;;;3.03;2.40;;;11.00;60.20;;;;;;4929176;29;20096;-77
2022/04/15 04:30:58;;;;;;;3.35;2.80;;;11.00;60.70;;;;;;4929278;29;20048;-77
2022/04/15 04:33:24;;;;;;;3.65;2.85;;;11.00;60.20;;;;;;4938384;29;20145;-77
2022/04/15 04:35:50;;;;;;;5.65;3.78;;;11.00;60.30;;;;;;4935685;29;20123;-76
2022/04/15 04:38:16;;;;;;;3.63;2.95;;;11.00;60.40;;;;;;4939515;29;20037;-76
2022/04/15 04:40:43;;;;;;;3.78;2.65;;;11.00;60.40;;;;;;4939053;29;20499;-76
2022/04/15 04:43:10;;;;;;;2.63;2.40;;;11.00;60.50;;;;;;4932696;29;20034;-77
2022/04/15 04:45:36;;;;;;;3.67;2.50;;;11.00;60.50;;;;;;4931248;29;20035;-76
2022/04/15 04:48:04;;;;;;;3.75;2.60;;;10.90;60.30;;;;;;4921291;29;20032;-76
2022/04/15 04:50:31;;;;;;;3.63;2.88;;;10.90;60.30;;;;;;4917417;29;20060;-77
2022/04/15 04:52:58;;;;;;;4.22;2.70;;;10.90;60.40;;;;;;4936071;29;20034;-76
2022/04/15 04:55:24;;;;;;;4.30;2.95;;;10.90;60.40;;;;;;4931672;29;20043;-77
2022/04/15 04:57:50;;;;;;;3.95;2.60;;;11.00;60.70;;;;;;4937123;29;20023;-76
2022/04/15 05:00:17;;;;;;;5.35;2.47;;;10.90;60.50;;;;;;4936651;29;20043;-76
2022/04/15 05:02:44;;;;;;;4.53;2.88;;;10.90;60.50;;;;;;4935584;29;20590;-77
2022/04/15 05:05:11;;;;;;;4.13;2.60;;;10.90;60.50;;;;;;4933796;29;20039;-77
2022/04/15 05:07:37;;;;;;;3.92;2.47;;;10.90;60.60;;;;;;4936914;29;20115;-76
2022/04/15 05:10:07;;;;;;;3.47;3.17;;;10.90;60.60;;;;;;4936554;29;20050;-76
2022/04/15 05:12:32;;;;;;;3.60;2.72;;;10.90;60.60;;;;;;4937570;29;20114;-77
2022/04/15 05:14:58;;;;;;;4.82;2.67;;;10.90;60.60;;;;;;4941982;28;20032;-76
2022/04/15 05:17:24;;;;;;;2.72;2.40;;;10.90;60.60;;;;;;4925165;29;20522;-76
2022/04/15 05:19:50;;;;;;;2.75;2.55;;;11.00;61.40;;;;;;4936859;29;20046;-77
2022/04/15 05:22:16;;;;;;;3.00;2.53;;;10.90;60.70;;;;;;4937651;29;20388;-76
2022/04/15 05:24:42;;;;;;;2.63;2.00;;;10.90;60.70;;;;;;4944574;29;20118;-78
2022/04/15 05:27:08;;;;;;;3.22;2.50;;;11.00;60.90;;;;;;4937679;28;20123;-77
2022/04/15 05:29:34;;;;;;;2.33;2.13;;;10.90;60.70;;;;;;4934504;28;20038;-76
2022/04/15 05:32:01;;;;;;;3.35;2.80;;;10.90;60.70;;;;;;4932207;29;20038;-76
2022/04/15 05:34:26;;;;;;;2.70;2.50;;;11.00;60.90;;;;;;4940108;29;20040;-76
2022/04/15 05:36:52;;;;;;;2.78;2.47;;;11.00;60.90;;;;;;4935692;29;20035;-77
2022/04/15 05:39:19;;;;;;;3.90;2.95;;;11.00;60.80;;;;;;4934162;28;20056;-77
2022/04/15 05:41:45;;;;;;;3.10;2.40;;;11.00;60.80;;;;;;4931346;29;20102;-77
2022/04/15 05:44:13;;;;;;;2.88;2.60;;;11.10;60.90;;;;;;4934198;29;20499;-78
2022/04/15 05:46:42;;;;;;;3.40;2.97;;;11.10;60.90;;;;;;4932441;28;20046;-76
2022/04/15 05:49:13;;;;;;;3.40;2.42;;;11.10;60.90;;;;;;4928266;29;20036;-77
2022/04/15 05:51:42;;;;;;;2.60;2.08;;;11.10;60.90;;;;;;4924264;29;20126;-78
2022/04/15 05:54:09;;;;;;;3.17;2.75;;;11.10;60.80;;;;;;4921601;29;20024;-76
2022/04/15 05:56:36;;;;;;;3.72;2.47;;;11.20;61.00;;;;;;4929398;29;20669;-78
2022/04/15 05:59:03;;;;;;;2.78;2.47;;;11.20;60.90;;;;;;4943864;29;20032;-78
2022/04/15 06:01:28;;;;;;;3.50;3.20;;;11.30;61.10;;;;;;4929046;29;20130;-79
2022/04/15 06:03:54;;;;;;;2.65;2.25;;;11.30;61.10;;;;;;4927211;29;20119;-81
2022/04/15 06:06:20;;;;;;;3.15;2.28;;;11.30;61.00;;;;;;4923248;29;20896;-81
2022/04/15 06:08:46;;;;;;;3.58;2.97;;;11.40;61.10;;;;;;4931335;29;20107;-77
2022/04/15 06:11:12;;;;;;;3.80;2.88;;;11.50;61.70;;;;;;4927633;29;20123;-79
2022/04/15 06:13:41;;;;;;;4.18;2.85;;;11.60;61.30;;;;;;4929374;29;20032;-78
2022/04/15 06:16:09;;;;;;;4.18;3.03;;;11.80;61.60;;;;;;4920418;29;20445;-78
2022/04/15 06:18:36;;;;;;;3.05;2.72;;;11.90;61.50;;;;;;4928670;29;20455;-78
2022/04/15 06:21:03;;;;;;;4.13;3.00;;;12.00;61.40;;;;;;4925522;29;20158;-77
2022/04/15 06:23:29;;;;;;;5.18;3.33;;;12.10;61.30;;;;;;4931000;29;20421;-78
2022/04/15 06:25:55;;;;;;;2.95;2.65;;;12.20;61.30;;;;;;4923151;29;20436;-78
2022/04/15 06:28:21;;;;;;;3.22;2.70;;;12.30;61.40;;;;;;4919075;29;20035;-77
2022/04/15 06:30:48;;;;;;;3.05;2.42;;;12.50;61.60;;;;;;4919520;29;20035;-76
2022/04/15 06:33:20;;;;;;;4.00;2.78;;;12.70;61.60;;;;;;4924333;29;20078;-76
2022/04/15 06:35:47;;;;;;;3.53;2.63;;;13.00;61.60;;;;;;4915760;29;20032;-78
2022/04/15 06:38:13;;;;;;;4.13;2.67;;;13.30;61.40;;;;;;4925828;29;20038;-78
2022/04/15 06:40:40;;;;;;;2.80;2.38;;;13.80;61.20;;;;;;4925103;29;20052;-79
2022/04/15 06:43:06;;;;;;;4.10;2.65;;;14.20;60.90;;;;;;4944439;29;20036;-78
2022/04/15 06:45:33;;;;;;;4.55;2.83;;;14.70;60.70;;;;;;4926925;29;20040;-78
2022/04/15 06:47:59;;;;;;;3.50;2.72;;;15.10;60.50;;;;;;4925736;29;20032;-80
2022/04/15 06:50:25;;;;;;;4.25;2.97;;;15.50;60.20;;;;;;4928645;29;20634;-81
2022/04/15 06:52:51;;;;;;;4.78;2.78;;;15.80;60.00;;;;;;4928499;29;20039;-79
2022/04/15 06:55:18;;;;;;;8.65;2.95;;;16.10;59.80;;;;;;4927004;29;20152;-79
2022/04/15 06:57:44;;;;;;;4.28;2.55;;;16.40;59.70;;;;;;4927773;28;20035;-79
2022/04/15 07:00:14;;;;;;;4.10;3.45;;;16.80;59.60;;;;;;4921046;29;20035;-80
2022/04/15 07:02:41;;;;;;;8.50;4.85;;;17.10;59.30;;;;;;4928606;29;20035;-79
2022/04/15 07:05:09;;;;;;;4.40;3.60;;;17.40;59.00;;;;;;4930014;29;20028;-80
2022/04/15 07:07:39;;;;;;;4.60;3.78;;;17.60;58.50;;;;;;4910811;29;20063;-82
2022/04/15 07:10:07;;;;;;;3.85;3.28;;;17.90;58.50;;;;;;4922544;29;20507;-79
2022/04/15 07:12:34;;;;;;;4.78;3.45;;;18.20;58.40;;;;;;4920496;29;20254;-77
2022/04/15 07:15:00;;;;;;;4.28;3.00;;;18.40;58.20;;;;;;4918002;29;20032;-77
2022/04/15 07:17:26;;;;;;;3.33;2.90;;;18.60;58.10;;;;;;4919589;29;20023;-78
2022/04/15 07:19:52;;;;;;;8.45;4.03;;;18.70;58.10;;;;;;4925068;29;20078;-79
2022/04/15 07:22:19;;;;;;;8.40;3.78;;;18.70;58.10;;;;;;4927977;29;20028;-77
2022/04/15 07:24:46;;;;;;;3.67;2.65;;;18.60;58.00;;;;;;4926136;29;20152;-77
2022/04/15 07:27:12;;;;;;;7.15;3.70;;;18.50;58.10;;;;;;4921849;29;20032;-89
2022/04/15 07:29:38;;;;;;;3.80;2.92;;;18.40;58.30;;;;;;4909159;29;20056;-81
2022/04/15 07:32:04;;;;;;;6.90;3.28;;;18.30;58.30;;;;;;4928676;29;20036;-84
2022/04/15 07:34:30;;;;;;;5.18;2.92;;;18.10;58.30;;;;;;4936026;29;20825;-82
2022/04/15 07:37:03;;;;;;;5.70;3.17;;;18.00;58.30;;;;;;4926052;29;20027;-84
2022/04/15 07:39:35;;;;;;;4.53;3.65;;;18.00;58.60;;;;;;4923438;29;20127;-83
2022/04/15 07:42:01;;;;;;;5.95;3.03;;;17.80;58.40;;;;;;4925800;29;20020;-83
2022/04/15 07:44:27;;;;;;;8.63;4.15;;;17.80;58.60;;;;;;4924484;29;20036;-83
2022/04/15 07:46:53;;;;;;;7.53;3.65;;;17.70;58.60;;;;;;4930275;29;20023;-78
2022/04/15 07:49:18;;;;;;;4.45;3.38;;;17.80;58.70;;;;;;4930990;29;20206;-76
2022/04/15 07:51:44;;;;;;;4.35;2.92;;;17.90;58.50;;;;;;4929077;29;20094;-79
2022/04/15 07:54:10;;;;;;;3.97;2.85;;;18.10;58.30;;;;;;4922370;29;20075;-75
2022/04/15 07:56:37;;;;;;;4.88;3.20;;;18.30;58.10;;;;;;4935978;29;20039;-76
2022/04/15 07:59:03;;;;;;;4.45;2.97;;;18.50;57.80;;;;;;4895092;29;20038;-77
2022/04/15 08:01:31;;;;;;;5.55;2.80;;;18.60;57.50;;;;;;4928672;29;20472;-78
2022/04/15 08:03:58;;;;;;;4.78;2.70;;;18.80;57.40;;;;;;4927968;29;20027;-78
2022/04/15 08:06:25;;;;;;;4.50;2.95;;;18.80;56.90;;;;;;4932439;29;20202;-77
2022/04/15 08:08:55;;;;;;;3.13;2.13;;;18.80;56.70;;;;;;4930755;29;20020;-78
2022/04/15 08:11:22;;;;;;;4.20;2.28;;;18.70;56.60;;;;;;4919419;29;20076;-77
2022/04/15 08:13:49;;;;;;;4.03;2.72;;;18.60;56.80;;;;;;4946635;28;20035;-76
2022/04/15 08:16:15;;;;;;;5.50;2.97;;;18.40;57.00;;;;;;4947637;29;20043;-76
2022/04/15 08:18:42;;;;;;;4.88;2.47;;;18.20;57.30;;;;;;4943092;29;20059;-76
2022/04/15 08:21:08;;;;;;;4.57;2.70;;;18.00;57.60;;;;;;4941870;29;20040;-76
2022/04/15 08:23:33;;;;;;;4.18;2.58;;;17.90;57.90;;;;;;4941772;29;20038;-75
2022/04/15 08:25:59;;;;;;;3.95;2.25;;;17.80;58.10;;;;;;4941555;29;20034;-77
2022/04/15 08:28:25;;;;;;;6.07;2.72;;;17.80;58.20;;;;;;4929117;29;20129;-77
2022/04/15 08:30:55;;;;;;;3.58;2.00;;;17.80;58.40;;;;;;4929960;29;20458;-77
2022/04/15 08:33:22;;;;;;;7.07;2.80;;;17.70;58.30;;;;;;4897723;29;20036;-76
2022/04/15 08:35:48;;;;;;;3.63;1.88;;;17.70;58.90;;;;;;4925628;29;20062;-78
2022/04/15 08:38:14;;;;;;;4.55;3.08;;;17.70;58.40;;;;;;4931481;29;20075;-76
2022/04/15 08:40:45;;;;;;;4.70;2.30;;;17.70;58.40;;;;;;4922770;28;20196;-77
2022/04/15 08:43:11;;;;;;;6.00;2.78;;;17.60;58.20;;;;;;4929717;29;20031;-77
2022/04/15 08:45:41;;;;;;;4.70;2.72;;;17.60;58.20;;;;;;4927801;29;20084;-76
2022/04/15 08:48:08;;;;;;;4.60;3.00;;;17.50;58.20;;;;;;4947516;28;20074;-75
2022/04/15 08:50:34;;;;;;;5.72;3.08;;;17.40;58.10;;;;;;4927751;29;20050;-76
2022/04/15 08:53:02;;;;;;;5.38;3.60;;;17.40;58.20;;;;;;4930089;29;20087;-77
2022/04/15 08:55:28;;;;;;;6.80;4.18;;;17.30;58.20;;;;;;4927945;29;20499;-77
2022/04/15 08:57:56;;;;;;;5.72;3.33;;;17.30;58.40;;;;;;4932507;29;20031;-76
2022/04/15 09:00:31;;;;;;;6.40;4.05;;;17.20;58.30;;;;;;4949375;28;20547;-77
2022/04/15 09:02:57;;;;;;;4.03;3.15;;;17.20;58.50;;;;;;4919233;29;20559;-77
2022/04/15 09:05:28;;;;;;;4.25;3.00;;;17.20;58.60;;;;;;4928767;29;20188;-77
2022/04/15 09:08:05;;;;;;;5.40;3.20;;;17.20;58.70;;;;;;4917168;29;20091;-77
2022/04/15 09:10:35;;;;;;;4.53;3.10;;;17.20;58.70;;;;;;4925611;29;20130;-77
2022/04/15 09:13:03;;;;;;;4.13;3.28;;;17.20;58.70;;;;;;4925430;29;20542;-78
2022/04/15 09:15:30;;;;;;;5.60;2.72;;;17.20;58.80;;;;;;4928018;29;20050;-76
2022/04/15 09:17:59;;;;;;;4.68;3.10;;;17.20;58.90;;;;;;4928680;29;20035;-78
2022/04/15 09:20:30;;;;;;;2.90;2.65;;;17.20;58.80;;;;;;4929261;29;20067;-77
2022/04/15 09:22:57;;;;;;;3.55;2.72;;;17.30;59.00;;;;;;4931898;29;20034;-78
2022/04/15 09:25:26;;;;;;;5.38;3.28;;;17.30;59.00;;;;;;4929913;29;20127;-78
2022/04/15 09:27:57;;;;;;;7.45;3.00;;;17.30;59.00;;;;;;4922907;29;20066;-78
2022/04/15 09:30:39;;;;;;;5.32;2.95;;;17.30;58.90;;;;;;4943150;29;20413;-79
2022/04/15 09:33:05;;;;;;;6.68;3.20;;;17.40;59.00;;;;;;4948339;29;20062;-78
2022/04/15 09:35:32;;;;;;;6.53;3.63;;;17.40;58.90;;;;;;4946791;29;20095;-78
2022/04/15 09:38:03;;;;;;;5.25;3.38;;;17.40;59.30;;;;;;4952485;29;20055;-78
2022/04/15 09:40:35;;;;;;;3.25;2.95;;;17.40;58.70;;;;;;4944960;29;20234;-79
2022/04/15 09:43:02;;;;;;;3.73;3.20;;;17.40;58.60;;;;;;4954260;28;20023;-76
2022/04/15 09:45:34;;;;;;;4.88;2.80;;;17.40;58.60;;;;;;4964782;28;20034;-78
2022/04/15 09:48:05;;;;;;;4.20;2.85;;;17.40;58.50;;;;;;4945728;29;20063;-78
2022/04/15 09:50:38;;;;;;;4.97;4.13;;;17.50;58.70;;;;;;4933790;29;20036;-78
2022/04/15 09:53:18;;;;;;;3.83;2.80;;;17.50;59.20;;;;;;4929294;29;20035;-77
2022/04/15 09:55:46;;;;;;;4.40;3.25;;;17.60;58.80;;;;;;4926577;29;20060;-77
2022/04/15 09:58:14;;;;;;;4.95;3.20;;;17.60;58.70;;;;;;4930909;29;20047;-80
2022/04/15 10:00:43;;;;;;;3.35;2.65;;;17.70;58.80;;;;;;4936724;29;20067;-77
2022/04/15 10:03:11;;;;;;;4.97;3.40;;;17.70;58.80;;;;;;4926622;29;20040;-81
2022/04/15 10:05:41;;;;;;;3.95;3.13;;;17.80;58.90;;;;;;4943933;29;20036;-82
2022/04/15 10:08:09;;;;;;;3.88;2.95;;;17.80;58.70;;;;;;4931761;29;20027;-80
2022/04/15 10:10:36;;;;;;;4.65;2.90;;;17.90;58.80;;;;;;4932936;29;20295;-82
2022/04/15 10:13:06;;;;;;;7.45;3.42;;;18.00;59.00;;;;;;4930684;29;20032;-83
2022/04/15 10:15:33;;;;;;;5.18;3.00;;;18.00;58.90;;;;;;4927985;29;20063;-83
2022/04/15 10:18:01;;;;;;;4.32;3.50;;;18.10;59.00;;;;;;4927364;29;20032;-80
2022/04/15 10:20:30;;;;;;;4.15;2.88;;;18.10;58.80;;;;;;4930053;29;20048;-81
2022/04/15 10:23:01;;;;;;;3.80;2.63;;;18.20;58.90;;;;;;4932989;29;20036;-82
2022/04/15 10:25:29;;;;;;;3.97;2.80;;;18.30;59.00;;;;;;4931744;29;20055;-81
2022/04/15 10:28:16;;;;;;;4.25;2.42;;;18.40;59.00;;;;;;4934581;29;20035;-81
2022/04/15 10:30:54;;;;;;;5.03;3.00;;;18.40;58.80;;;;;;4938298;29;20063;-82
2022/04/15 10:33:30;;;;;;;4.85;2.65;;;18.50;58.80;;;;;;4931432;29;20119;-81
2022/04/15 10:36:16;;;;;;;5.45;3.15;;;18.60;58.70;;;;;;4931547;29;20529;-81
2022/04/15 10:39:06;;;;;;;4.68;2.60;;;18.70;58.70;;;;;;4929292;29;20070;-81
2022/04/15 10:41:41;;;;;;;4.78;2.38;;;18.80;58.70;;;;;;4931059;29;20094;-82
2022/04/15 10:44:11;;;;;;;4.35;2.72;;;18.90;58.60;;;;;;4931637;29;20365;-79
2022/04/15 10:46:38;;;;;;;4.18;2.97;;;19.00;58.70;;;;;;4927140;29;20059;-77
2022/04/15 10:49:24;;;;;;;3.63;3.25;;;19.10;58.70;;;;;;4943524;29;20024;-79
2022/04/15 10:51:59;;;;;;;5.28;3.28;;;19.10;58.40;;;;;;4931329;29;20083;-81
2022/04/15 10:54:35;;;;;;;4.32;2.63;;;19.20;58.50;;;;;;4929547;29;20036;-78
2022/04/15 10:57:14;;;;;;;4.32;3.03;;;19.30;58.40;;;;;;4928038;29;20495;-77
2022/04/15 11:02:50;;;;;;;3.53;3.10;;;19.50;58.50;;;;;;4933699;29;20384;-77
2022/04/15 11:05:43;;;;;;;3.78;3.33;;;19.60;58.40;;;;;;4927006;29;20036;-76
2022/04/15 11:08:14;;;;;;;4.85;3.28;;;19.70;58.40;;;;;;4921501;29;20031;-78
2022/04/15 11:10:59;;;;;;;4.63;3.08;;;19.80;58.40;;;;;;4924503;29;20570;-76
2022/04/15 11:13:57;;;;;;;6.25;3.45;;;19.90;58.30;;;;;;4936359;28;20040;-77
2022/04/15 11:16:42;;;;;;;4.78;4.30;;;20.00;58.40;;;;;;4911263;29;20136;-76
2022/04/15 11:19:11;;;;;;;4.72;4.03;;;20.10;58.30;;;;;;4923889;29;20040;-77
2022/04/15 11:21:39;;;;;;;9.93;4.75;;;20.20;58.20;;;;;;4926028;29;20042;-77
2022/04/15 11:24:10;;;;;;;6.28;4.30;;;20.30;58.10;;;;;;4934554;29;20243;-77
2022/04/15 11:26:44;;;;;;;4.30;3.70;;;20.40;58.00;;;;;;4923400;28;20028;-77
2022/04/15 11:29:12;;;;;;;9.18;4.32;;;20.50;58.00;;;;;;4935774;28;20050;-77
2022/04/15 11:31:40;;;;;;;4.75;3.63;;;20.60;57.90;;;;;;4925725;29;20026;-78
2022/04/15 11:34:08;;;;;;;5.15;3.60;;;20.70;57.90;;;;;;4917266;29;20032;-78
2022/04/15 11:36:36;;;;;;;4.38;3.50;;;20.80;57.90;;;;;;4922082;29;20110;-77
2022/04/15 11:39:04;;;;;;;5.55;3.70;;;20.90;57.80;;;;;;4920018;29;20066;-78
2022/04/15 11:41:31;;;;;;;5.38;3.95;;;20.90;57.60;;;;;;4929405;29;20034;-76
2022/04/15 11:44:05;;;;;;;6.28;3.85;;;21.00;57.60;;;;;;4930883;29;20055;-77
2022/04/15 11:46:48;;;;;;;4.95;3.55;;;21.10;58.20;;;;;;4928788;29;20110;-77
2022/04/15 11:49:17;;;;;;;6.20;2.97;;;21.20;57.50;;;;;;4942202;29;20053;-78
2022/04/15 11:51:49;;;;;;;4.75;3.45;;;21.30;57.50;;;;;;4928002;29;20046;-76
2022/04/15 11:54:16;;;;;;;3.80;3.17;;;21.50;57.50;;;;;;4931313;29;20456;-76
2022/04/15 11:56:43;;;;;;;5.30;3.45;;;21.60;57.60;;;;;;4928353;29;20304;-76
2022/04/15 11:59:11;;;;;;;4.25;3.05;;;21.70;57.00;;;;;;4930095;29;20063;-74
2022/04/15 12:01:37;;;;;;;4.47;2.78;;;21.80;56.80;;;;;;4924289;29;20043;-78
2022/04/15 12:04:05;;;;;;;5.63;3.00;;;21.80;56.50;;;;;;4925126;29;20208;-78
2022/04/15 12:06:40;;;;;;;4.15;2.88;;;21.80;56.40;;;;;;4932380;29;20032;-80
2022/04/15 12:09:06;;;;;;;4.35;3.00;;;21.90;56.50;;;;;;4928319;29;20032;-76
2022/04/15 12:11:32;;;;;;;4.22;3.42;;;22.00;56.50;;;;;;4921445;29;20028;-78
2022/04/15 12:14:00;;;;;;;4.53;3.38;;;22.10;56.70;;;;;;4923368;29;20074;-76
2022/04/15 12:16:30;;;;;;;3.50;2.90;;;22.10;56.40;;;;;;4919704;29;20028;-77
2022/04/15 12:18:58;;;;;;;3.53;3.13;;;22.30;56.30;;;;;;4921938;29;20334;-76
2022/04/15 12:21:26;;;;;;;4.60;3.38;;;22.30;56.10;;;;;;4924802;29;20035;-76
2022/04/15 12:24:19;;;;;;;5.07;3.85;;;22.40;56.10;;;;;;4928356;29;20321;-77
2022/04/15 12:26:50;;;;;;;4.85;3.60;;;22.40;56.50;;;;;;4929290;29;20102;-77
2022/04/15 12:32:26;;;;;;;9.07;8.07;;;22.30;55.70;;;;;;4919336;29;20036;-77
2022/04/15 12:34:55;;;;;;;8.77;6.80;;;22.30;55.90;;;;;;4925918;29;20154;-76
2022/04/15 12:37:44;;;;;;;9.63;6.55;;;22.30;56.10;;;;;;4938427;29;20040;-77
2022/04/15 12:40:14;;;;;;;8.80;7.05;;;22.20;55.90;;;;;;4942142;29;20051;-77
2022/04/15 12:42:44;;;;;;;10.40;7.60;;;22.20;56.10;;;;;;4923526;29;20040;-77
2022/04/15 12:45:12;;;;;;;15.57;8.65;;;22.30;56.30;;;;;;4931956;28;20086;-78
2022/04/15 12:47:40;;;;;;;10.48;8.50;;;22.30;56.30;;;;;;4921341;29;20023;-77
2022/04/15 12:50:29;;;;;;;11.60;9.02;;;22.40;56.30;;;;;;4920712;29;20130;-76
2022/04/15 12:52:56;;;;;;;10.27;8.73;;;22.60;56.30;;;;;;4926127;29;20032;-77
2022/04/15 12:55:29;;;;;;;9.50;8.57;;;22.70;56.30;;;;;;4922125;29;20036;-77
2022/04/15 12:57:56;;;;;;;10.15;9.13;;;22.70;56.10;;;;;;4926921;29;20036;-77